createdAt,value
2019-04-16T00:01:51.445Z,7.10
2019-04-16T00:04:34.386Z,7.20
2019-04-16T00:07:13.984Z,7.20
2019-04-16T00:10:06.574Z,7.20
2019-04-16T00:12:53.118Z,7.00
2019-04-16T00:15:24.789Z,7.00
2019-04-16T00:17:55.500Z,7.00
2019-04-16T00:20:26.128Z,7.10
2019-04-16T00:23:02.435Z,7.10
2019-04-16T00:25:33.148Z,7.10
2019-04-16T00:28:03.776Z,7.10
2019-04-16T00:30:35.773Z,7.10
2019-04-16T00:33:07.607Z,7.10
2019-04-16T00:35:39.038Z,7.00
2019-04-16T00:38:09.674Z,7.00
2019-04-16T00:40:40.505Z,7.00
2019-04-16T00:43:11.153Z,7.00
2019-04-16T00:45:41.902Z,7.00
2019-04-16T00:48:12.531Z,7.00
2019-04-16T00:50:43.126Z,7.10
2019-04-16T00:53:13.789Z,7.20
2019-04-16T00:55:45.050Z,7.10
2019-04-16T00:58:19.493Z,7.20
2019-04-16T01:00:48.677Z,7.10
2019-04-16T01:03:19.292Z,7.20
2019-04-16T01:05:49.946Z,7.20
2019-04-16T01:08:20.497Z,7.10
2019-04-16T01:10:51.126Z,7.10
2019-04-16T01:13:24.434Z,7.20
2019-04-16T01:15:54.206Z,7.10
2019-04-16T01:18:25.027Z,7.20
2019-04-16T01:20:55.716Z,7.20
2019-04-16T01:23:26.262Z,7.10
2019-04-16T01:25:56.917Z,7.20
2019-04-16T01:28:31.950Z,7.20
2019-04-16T01:31:22.577Z,7.10
2019-04-16T01:34:10.967Z,7.20
2019-04-16T01:37:03.468Z,7.20
2019-04-16T01:39:37.308Z,7.20
2019-04-16T01:42:09.493Z,7.20
2019-04-16T01:44:40.140Z,7.20
2019-04-16T01:47:10.916Z,7.20
2019-04-16T01:49:42.230Z,7.20
2019-04-16T01:52:13.524Z,7.20
2019-04-16T01:54:44.165Z,7.10
2019-04-16T01:57:14.749Z,7.20
2019-04-16T01:59:45.381Z,7.20
2019-04-16T02:02:16.044Z,7.20
2019-04-16T02:04:48.446Z,7.20
2019-04-16T02:07:19.115Z,7.10
2019-04-16T02:09:49.777Z,7.10
2019-04-16T02:12:20.358Z,7.10
2019-04-16T02:14:51.160Z,7.10
2019-04-16T02:17:26.660Z,7.10
2019-04-16T02:19:54.277Z,7.10
2019-04-16T02:22:24.846Z,7.20
2019-04-16T02:24:55.557Z,7.20
2019-04-16T02:27:26.969Z,7.10
2019-04-16T02:29:58.555Z,7.10
2019-04-16T02:32:30.035Z,7.10
2019-04-16T02:35:00.776Z,7.20
2019-04-16T02:37:35.412Z,7.20
2019-04-16T02:40:04.256Z,7.20
2019-04-16T02:42:34.875Z,7.30
2019-04-16T02:45:05.831Z,7.20
2019-04-16T02:47:41.621Z,7.20
2019-04-16T02:50:13.128Z,7.20
2019-04-16T02:53:02.887Z,7.30
2019-04-16T02:56:07.506Z,7.30
2019-04-16T02:58:44.558Z,7.20
2019-04-16T03:01:34.104Z,7.20
2019-04-16T03:04:09.456Z,7.20
2019-04-16T03:06:40.108Z,7.30
2019-04-16T03:09:10.844Z,7.20
2019-04-16T03:11:41.580Z,7.20
2019-04-16T03:14:12.231Z,7.20
2019-04-16T03:16:59.186Z,7.10
2019-04-16T03:19:33.245Z,7.10
2019-04-16T03:22:03.950Z,7.10
2019-04-16T03:24:37.432Z,7.10
2019-04-16T03:27:06.797Z,7.00
2019-04-16T03:29:37.377Z,7.00
2019-04-16T03:32:12.784Z,7.00
2019-04-16T03:34:40.174Z,7.00
2019-04-16T03:37:10.784Z,7.00
2019-04-16T03:39:43.835Z,7.00
2019-04-16T03:42:14.609Z,6.90
2019-04-16T03:44:45.289Z,6.90
2019-04-16T03:47:19.142Z,7.00
2019-04-16T03:49:48.214Z,7.00
2019-04-16T03:52:18.860Z,7.00
2019-04-16T03:54:53.794Z,7.00
2019-04-16T03:57:21.725Z,7.10
2019-04-16T03:59:52.448Z,7.10
2019-04-16T04:02:23.186Z,7.10
2019-04-16T04:04:53.939Z,7.20
2019-04-16T04:07:24.598Z,7.20
2019-04-16T04:09:57.263Z,7.30
2019-04-16T04:12:27.883Z,7.50
2019-04-16T04:14:58.715Z,7.70
2019-04-16T04:17:30.267Z,8.00
2019-04-16T04:20:00.861Z,8.50
2019-04-16T04:22:31.510Z,9.30
2019-04-16T04:25:04.329Z,9.70
2019-04-16T04:27:34.543Z,10.30
2019-04-16T04:30:05.922Z,11.00
2019-04-16T04:32:36.496Z,11.60
2019-04-16T04:35:07.387Z,11.90
2019-04-16T04:37:38.109Z,12.60
2019-04-16T04:40:08.805Z,12.90
2019-04-16T04:42:39.473Z,13.20
2019-04-16T04:45:10.679Z,13.20
2019-04-16T04:47:41.348Z,13.20
2019-04-16T04:50:12.403Z,13.30
2019-04-16T04:52:45.990Z,13.40
2019-04-16T04:55:16.843Z,13.70
2019-04-16T04:57:48.027Z,13.20
2019-04-16T05:00:19.535Z,13.60
2019-04-16T05:02:53.136Z,14.00
2019-04-16T05:05:31.533Z,13.60
2019-04-16T05:08:02.182Z,13.30
2019-04-16T05:10:32.798Z,13.60
2019-04-16T05:13:03.968Z,13.70
2019-04-16T05:15:34.579Z,14.20
2019-04-16T05:18:05.969Z,14.10
2019-04-16T05:20:37.384Z,14.10
2019-04-16T05:23:08.133Z,14.10
2019-04-16T05:25:38.789Z,14.40
2019-04-16T05:28:12.085Z,15.20
2019-04-16T05:30:41.763Z,15.70
2019-04-16T05:33:12.578Z,15.60
2019-04-16T05:35:43.558Z,15.90
2019-04-16T05:38:14.217Z,15.90
2019-04-16T05:40:44.828Z,15.80
2019-04-16T05:43:15.462Z,16.30
2019-04-16T05:45:46.113Z,16.90
2019-04-16T05:48:18.644Z,17.50
2019-04-16T05:50:49.089Z,17.20
2019-04-16T05:53:20.064Z,17.50
2019-04-16T05:56:09.689Z,17.90
2019-04-16T05:58:40.656Z,18.10
2019-04-16T06:01:33.089Z,18.60
2019-04-16T06:04:03.905Z,18.70
2019-04-16T06:06:34.555Z,18.90
2019-04-16T06:09:11.911Z,19.20
2019-04-16T06:11:40.203Z,18.30
2019-04-16T06:14:18.606Z,18.70
2019-04-16T06:17:08.173Z,18.80
2019-04-16T06:19:57.674Z,18.80
2019-04-16T06:22:39.406Z,18.80
2019-04-16T06:25:46.992Z,18.90
2019-04-16T06:28:35.368Z,19.50
2019-04-16T06:31:11.457Z,19.50
2019-04-16T06:34:19.330Z,19.40
2019-04-16T06:37:01.335Z,19.50
2019-04-16T06:40:00.624Z,19.30
2019-04-16T06:42:39.358Z,20.20
2019-04-16T06:45:23.489Z,19.80
2019-04-16T06:47:57.925Z,20.50
2019-04-16T06:50:45.887Z,20.10
2019-04-16T06:53:35.437Z,20.30
2019-04-16T06:56:23.942Z,20.20
2019-04-16T06:58:59.323Z,20.10
2019-04-16T07:01:47.440Z,21.20
2019-04-16T07:04:29.496Z,21.40
2019-04-16T07:07:16.859Z,22.20
2019-04-16T07:10:09.189Z,21.80
2019-04-16T07:12:39.910Z,20.30
2019-04-16T07:15:11.095Z,20.60
2019-04-16T07:17:42.743Z,20.20
2019-04-16T07:20:14.287Z,21.00
2019-04-16T07:22:45.068Z,20.70
2019-04-16T07:25:16.134Z,20.30
2019-04-16T07:28:06.015Z,20.40
2019-04-16T07:30:52.741Z,20.30
2019-04-16T07:33:54.220Z,21.10
2019-04-16T07:36:37.288Z,20.70
2019-04-16T07:39:37.290Z,21.10
2019-04-16T07:42:26.326Z,21.40
2019-04-16T07:45:17.767Z,21.10
2019-04-16T07:48:13.099Z,20.90
2019-04-16T07:51:14.685Z,21.60
2019-04-16T07:54:07.308Z,20.90
2019-04-16T07:56:40.428Z,21.70
2019-04-16T07:59:12.082Z,21.70
2019-04-16T08:01:44.033Z,21.70
2019-04-16T08:04:23.210Z,21.40
2019-04-16T08:06:47.434Z,22.10
2019-04-16T08:09:18.274Z,22.00
2019-04-16T08:11:49.031Z,21.50
2019-04-16T08:14:19.754Z,21.30
2019-04-16T08:16:50.402Z,21.50
2019-04-16T08:19:21.072Z,21.80
2019-04-16T08:21:51.742Z,22.60
2019-04-16T08:24:27.418Z,22.90
2019-04-16T08:26:58.053Z,21.70
2019-04-16T08:29:28.671Z,21.50
2019-04-16T08:31:59.413Z,22.00
2019-04-16T08:34:29.973Z,22.20
2019-04-16T08:37:00.765Z,21.50
2019-04-16T08:39:36.838Z,21.60
2019-04-16T08:42:06.951Z,21.50
2019-04-16T08:44:37.583Z,21.70
2019-04-16T08:47:11.518Z,21.30
2019-04-16T08:49:40.616Z,21.30
2019-04-16T08:52:11.437Z,20.70
2019-04-16T08:54:42.116Z,21.20
2019-04-16T08:57:12.738Z,21.10
2019-04-16T08:59:43.401Z,21.80
2019-04-16T09:02:15.024Z,20.90
2019-04-16T09:04:45.640Z,20.40
2019-04-16T09:07:34.032Z,20.50
2019-04-16T09:10:17.666Z,19.70
2019-04-16T09:12:44.957Z,19.20
2019-04-16T09:15:13.742Z,19.70
2019-04-16T09:17:46.838Z,19.80
2019-04-16T09:20:22.927Z,20.10
2019-04-16T09:22:53.612Z,20.70
2019-04-16T09:25:49.325Z,19.80
2019-04-16T09:28:27.278Z,20.10
2019-04-16T09:31:26.090Z,19.60
2019-04-16T09:34:27.534Z,19.50
2019-04-16T09:37:15.660Z,19.80
2019-04-16T09:40:17.701Z,19.50
2019-04-16T09:42:46.300Z,19.40
2019-04-16T09:45:18.809Z,19.20
2019-04-16T09:47:49.537Z,19.40
2019-04-16T09:50:20.114Z,19.20
2019-04-16T09:52:52.415Z,19.20
2019-04-16T09:55:23.068Z,19.30
2019-04-16T09:57:53.689Z,19.10
2019-04-16T10:00:30.704Z,19.00
2019-04-16T10:03:09.896Z,19.00
2019-04-16T10:05:41.557Z,18.70
2019-04-16T10:08:12.625Z,18.60
2019-04-16T10:10:44.476Z,18.50
2019-04-16T10:13:15.251Z,18.30
2019-04-16T10:15:45.890Z,18.10
2019-04-16T10:18:16.663Z,18.20
2019-04-16T10:20:47.543Z,18.10
2019-04-16T10:23:26.584Z,18.00
2019-04-16T10:25:57.280Z,18.00
2019-04-16T10:28:33.900Z,17.80
2019-04-16T10:31:04.049Z,18.00
2019-04-16T10:33:34.756Z,17.90
2019-04-16T10:36:06.170Z,17.80
2019-04-16T10:38:59.611Z,17.60
2019-04-16T10:41:52.252Z,17.40
2019-04-16T10:44:31.136Z,17.40
2019-04-16T10:47:21.053Z,17.60
2019-04-16T10:50:16.025Z,17.60
2019-04-16T10:53:08.315Z,17.30
2019-04-16T10:56:10.093Z,16.50
2019-04-16T10:59:18.207Z,15.90
2019-04-16T11:01:59.115Z,16.20
2019-04-16T11:05:03.805Z,16.20
2019-04-16T11:07:35.533Z,15.90
2019-04-16T11:10:11.646Z,15.90
2019-04-16T11:12:40.760Z,15.80
2019-04-16T11:15:13.604Z,15.70
2019-04-16T11:17:44.382Z,15.80
2019-04-16T11:20:15.386Z,15.70
2019-04-16T11:22:46.288Z,15.60
2019-04-16T11:25:17.003Z,15.70
2019-04-16T11:27:47.745Z,15.60
2019-04-16T11:30:40.801Z,15.60
2019-04-16T11:33:11.783Z,15.40
2019-04-16T11:35:42.390Z,15.20
2019-04-16T11:38:13.314Z,15.00
2019-04-16T11:40:44.969Z,14.70
2019-04-16T11:43:15.631Z,14.50
2019-04-16T11:45:48.152Z,14.60
2019-04-16T11:48:18.853Z,14.60
2019-04-16T11:50:50.547Z,14.30
2019-04-16T11:53:21.237Z,14.20
2019-04-16T11:55:52.364Z,14.40
2019-04-16T11:58:47.848Z,14.10
2019-04-16T12:01:30.562Z,13.90
2019-04-16T12:04:06.118Z,13.80
2019-04-16T12:07:06.082Z,13.60
2019-04-16T12:09:54.511Z,13.40
2019-04-16T12:12:34.520Z,13.40
2019-04-16T12:15:30.675Z,13.50
2019-04-16T12:18:05.434Z,13.60
2019-04-16T12:20:58.411Z,13.40
2019-04-16T12:23:50.725Z,13.40
2019-04-16T12:26:40.272Z,13.30
2019-04-16T12:29:32.825Z,13.30
2019-04-16T12:32:27.068Z,13.20
2019-04-16T12:35:14.653Z,13.30
2019-04-16T12:38:05.308Z,13.30
2019-04-16T12:41:04.840Z,13.40
2019-04-16T12:43:41.416Z,13.60
2019-04-16T12:46:39.772Z,13.50
2019-04-16T12:49:28.071Z,13.40
2019-04-16T12:52:17.405Z,13.40
2019-04-16T12:55:02.754Z,13.50
2019-04-16T12:57:58.751Z,13.40
2019-04-16T13:00:45.611Z,13.10
2019-04-16T13:03:32.861Z,13.10
2019-04-16T13:06:31.346Z,13.20
2019-04-16T13:09:29.719Z,13.00
2019-04-16T13:12:32.787Z,13.00
2019-04-16T13:15:21.378Z,13.00
2019-04-16T13:18:05.838Z,13.10
2019-04-16T13:21:03.852Z,13.20
2019-04-16T13:23:50.753Z,13.20
2019-04-16T13:26:33.124Z,13.20
2019-04-16T13:29:09.517Z,13.20
2019-04-16T13:31:40.265Z,13.20
2019-04-16T13:34:10.914Z,13.20
2019-04-16T13:36:41.542Z,13.20
2019-04-16T13:39:31.418Z,13.20
2019-04-16T13:42:02.256Z,13.30
2019-04-16T13:44:37.688Z,13.20
2019-04-16T13:47:10.203Z,13.20
2019-04-16T13:50:03.550Z,13.30
2019-04-16T13:52:33.147Z,13.40
2019-04-16T13:55:21.325Z,13.50
2019-04-16T13:58:00.888Z,13.40
2019-04-16T14:00:39.386Z,13.30
2019-04-16T14:03:12.762Z,13.30
2019-04-16T14:05:43.513Z,13.40
2019-04-16T14:08:14.163Z,13.40
2019-04-16T14:10:45.846Z,13.50
2019-04-16T14:13:16.598Z,13.40
2019-04-16T14:15:47.298Z,13.50
2019-04-16T14:18:21.567Z,13.40
2019-04-16T14:20:50.218Z,13.40
2019-04-16T14:23:20.913Z,13.30
2019-04-16T14:25:51.615Z,13.40
2019-04-16T14:28:22.302Z,13.40
2019-04-16T14:30:52.990Z,13.40
2019-04-16T14:33:48.627Z,13.30
2019-04-16T14:36:19.418Z,13.30
2019-04-16T14:38:53.491Z,13.30
2019-04-16T14:41:24.605Z,13.40
2019-04-16T14:44:02.526Z,13.40
2019-04-16T14:46:32.850Z,13.40
2019-04-16T14:49:03.545Z,13.30
2019-04-16T14:51:34.283Z,13.10
2019-04-16T14:54:16.678Z,13.10
2019-04-16T14:56:49.516Z,13.10
2019-04-16T14:59:44.414Z,13.00
2019-04-16T15:02:33.923Z,12.90
2019-04-16T15:05:22.957Z,12.90
2019-04-16T15:08:01.673Z,12.80
2019-04-16T15:10:51.621Z,12.60
2019-04-16T15:13:34.191Z,12.50
2019-04-16T15:16:23.947Z,12.40
2019-04-16T15:19:12.122Z,12.30
2019-04-16T15:22:00.585Z,12.20
2019-04-16T15:24:40.478Z,12.20
2019-04-16T15:27:31.862Z,12.10
2019-04-16T15:30:29.377Z,11.90
2019-04-16T15:33:22.162Z,12.00
2019-04-16T15:36:20.859Z,11.80
2019-04-16T15:39:16.195Z,11.70
2019-04-16T15:42:20.921Z,11.40
2019-04-16T15:45:04.368Z,11.30
2019-04-16T15:48:03.097Z,11.30
2019-04-16T15:50:42.115Z,11.20
2019-04-16T15:53:23.097Z,11.20
2019-04-16T15:55:59.463Z,11.10
2019-04-16T15:58:42.936Z,11.10
2019-04-16T16:01:32.537Z,11.10
2019-04-16T16:04:11.733Z,11.10
2019-04-16T16:06:52.371Z,11.00
2019-04-16T16:09:43.838Z,11.00
2019-04-16T16:12:22.056Z,11.10
2019-04-16T16:14:51.181Z,11.00
2019-04-16T16:17:22.550Z,11.00
2019-04-16T16:19:54.144Z,11.00
2019-04-16T16:22:24.870Z,10.90
2019-04-16T16:24:55.616Z,10.80
2019-04-16T16:27:26.296Z,10.80
2019-04-16T16:29:56.972Z,10.80
2019-04-16T16:32:27.695Z,10.70
2019-04-16T16:34:58.470Z,10.70
2019-04-16T16:37:29.175Z,10.70
2019-04-16T16:40:00.002Z,10.60
2019-04-16T16:42:30.752Z,10.50
2019-04-16T16:45:02.829Z,10.60
2019-04-16T16:47:39.699Z,10.60
2019-04-16T16:50:12.961Z,10.50
2019-04-16T16:53:02.792Z,10.50
2019-04-16T16:55:46.173Z,10.40
2019-04-16T16:58:41.848Z,10.40
2019-04-16T17:01:43.571Z,10.40
2019-04-16T17:04:22.819Z,10.30
2019-04-16T17:06:53.659Z,10.20
2019-04-16T17:09:31.187Z,10.10
2019-04-16T17:12:02.219Z,10.10
2019-04-16T17:14:36.267Z,10.10
2019-04-16T17:17:13.864Z,10.00
2019-04-16T17:19:37.858Z,10.00
2019-04-16T17:22:08.731Z,10.00
2019-04-16T17:24:39.346Z,9.90
2019-04-16T17:27:10.210Z,9.70
2019-04-16T17:29:40.953Z,9.70
2019-04-16T17:32:35.553Z,9.60
2019-04-16T17:35:07.875Z,9.60
2019-04-16T17:37:39.031Z,9.50
2019-04-16T17:40:19.150Z,9.40
2019-04-16T17:42:51.494Z,9.40
2019-04-16T17:45:47.650Z,9.30
2019-04-16T17:48:39.325Z,9.30
2019-04-16T17:51:48.663Z,9.30
2019-04-16T17:54:53.556Z,9.30
2019-04-16T17:57:42.846Z,9.20
2019-04-16T18:00:41.734Z,9.30
2019-04-16T18:03:29.807Z,9.20
2019-04-16T18:06:23.271Z,9.20
2019-04-16T18:09:11.879Z,9.10
2019-04-16T18:11:56.065Z,9.00
2019-04-16T18:14:43.544Z,9.00
2019-04-16T18:17:26.537Z,8.90
2019-04-16T18:20:24.929Z,8.80
2019-04-16T18:23:17.272Z,8.80
2019-04-16T18:26:10.133Z,8.70
2019-04-16T18:29:01.008Z,8.70
2019-04-16T18:31:41.918Z,8.70
2019-04-16T18:34:27.373Z,8.70
2019-04-16T18:37:15.270Z,8.70
2019-04-16T18:39:53.710Z,8.70
2019-04-16T18:42:31.116Z,8.70
2019-04-16T18:45:22.937Z,8.60
2019-04-16T18:48:04.866Z,8.70
2019-04-16T18:50:31.594Z,8.70
2019-04-16T18:53:02.982Z,8.70
2019-04-16T18:55:33.860Z,8.60
2019-04-16T18:58:05.703Z,8.70
2019-04-16T19:00:45.509Z,8.70
2019-04-16T19:03:16.451Z,8.70
2019-04-16T19:05:48.226Z,8.70
2019-04-16T19:08:19.391Z,8.80
2019-04-16T19:10:50.247Z,8.70
2019-04-16T19:13:22.519Z,8.70
2019-04-16T19:15:54.228Z,8.80
2019-04-16T19:18:25.353Z,8.80
2019-04-16T19:20:56.098Z,9.00
2019-04-16T19:23:27.395Z,9.10
2019-04-16T19:25:59.411Z,9.10
2019-04-16T19:28:30.201Z,9.00
2019-04-16T19:31:01.012Z,9.00
2019-04-16T19:33:37.856Z,9.00
2019-04-16T19:36:04.183Z,9.00
2019-04-16T19:38:35.788Z,9.00
2019-04-16T19:41:07.414Z,9.00
2019-04-16T19:43:38.624Z,9.00
2019-04-16T19:46:09.401Z,9.00
2019-04-16T19:48:44.382Z,9.00
2019-04-16T19:51:19.459Z,9.00
2019-04-16T19:53:49.203Z,9.00
2019-04-16T19:56:19.945Z,9.00
2019-04-16T19:58:50.696Z,8.90
2019-04-16T20:01:21.801Z,8.90
2019-04-16T20:03:52.520Z,8.90
2019-04-16T20:06:26.130Z,9.00
2019-04-16T20:08:56.039Z,8.90
2019-04-16T20:11:26.765Z,8.90
2019-04-16T20:14:01.129Z,8.90
2019-04-16T20:16:30.177Z,8.90
2019-04-16T20:19:00.848Z,8.90
2019-04-16T20:21:31.854Z,8.80
2019-04-16T20:24:03.211Z,8.80
2019-04-16T20:26:34.150Z,8.80
2019-04-16T20:29:04.999Z,8.80
2019-04-16T20:31:36.131Z,8.80
2019-04-16T20:34:09.376Z,8.80
2019-04-16T20:36:39.291Z,8.80
2019-04-16T20:39:10.005Z,8.70
2019-04-16T20:41:41.334Z,8.70
2019-04-16T20:44:11.966Z,8.80
2019-04-16T20:46:43.133Z,8.70
2019-04-16T20:49:16.598Z,8.70
2019-04-16T20:51:46.222Z,8.60
2019-04-16T20:54:16.939Z,8.60
2019-04-16T20:56:50.035Z,8.60
2019-04-16T20:59:21.374Z,8.60
2019-04-16T21:01:52.073Z,8.60
2019-04-16T21:04:23.299Z,8.70
2019-04-16T21:06:54.036Z,8.70
2019-04-16T21:09:26.771Z,8.70
2019-04-16T21:11:57.164Z,8.60
2019-04-16T21:14:27.958Z,8.60
2019-04-16T21:16:58.662Z,8.70
2019-04-16T21:19:46.779Z,8.70
2019-04-16T21:22:18.931Z,8.70
2019-04-16T21:24:50.640Z,8.70
2019-04-16T21:27:21.221Z,8.70
2019-04-16T21:29:54.847Z,8.70
2019-04-16T21:32:45.595Z,8.70
2019-04-16T21:35:24.137Z,8.70
2019-04-16T21:38:05.465Z,8.70
2019-04-16T21:40:38.275Z,8.60
2019-04-16T21:43:08.984Z,8.70
2019-04-16T21:45:39.734Z,8.70
2019-04-16T21:48:12.486Z,8.70
2019-04-16T21:50:44.535Z,8.80
2019-04-16T21:53:15.731Z,8.80
2019-04-16T21:55:46.306Z,8.80
2019-04-16T21:58:17.647Z,8.80
2019-04-16T22:01:06.795Z,8.90
2019-04-16T22:03:42.327Z,8.90
2019-04-16T22:06:11.795Z,8.80
2019-04-16T22:08:42.452Z,8.80
2019-04-16T22:11:13.128Z,8.80
2019-04-16T22:13:50.471Z,8.80
2019-04-16T22:16:17.483Z,8.90
2019-04-16T22:18:48.200Z,8.80
2019-04-16T22:21:18.885Z,8.80
2019-04-16T22:23:50.514Z,8.80
2019-04-16T22:26:21.860Z,8.80
2019-04-16T22:28:52.530Z,8.70
2019-04-16T22:31:23.815Z,8.70
2019-04-16T22:33:55.937Z,8.70
2019-04-16T22:36:26.952Z,8.70
2019-04-16T22:39:04.534Z,8.60
2019-04-16T22:41:44.750Z,8.70
2019-04-16T22:44:34.259Z,8.60
2019-04-16T22:47:09.877Z,8.60
2019-04-16T22:49:40.601Z,8.50
2019-04-16T22:52:12.461Z,8.50
2019-04-16T22:54:43.626Z,8.40
2019-04-16T22:57:15.815Z,8.50
2019-04-16T22:59:47.570Z,8.50
2019-04-16T23:02:24.026Z,8.50
2019-04-16T23:04:59.500Z,8.40
2019-04-16T23:07:30.192Z,8.40
2019-04-16T23:10:03.691Z,8.30
2019-04-16T23:12:34.458Z,8.30
2019-04-16T23:15:06.407Z,8.30
2019-04-16T23:17:37.254Z,8.30
2019-04-16T23:20:08.096Z,8.30
2019-04-16T23:22:43.622Z,8.30
2019-04-16T23:25:13.516Z,8.40
2019-04-16T23:27:44.065Z,8.40
2019-04-16T23:30:15.749Z,8.40
2019-04-16T23:32:47.289Z,8.30
2019-04-16T23:35:18.041Z,8.30
2019-04-16T23:37:48.704Z,8.30
2019-04-16T23:40:19.280Z,8.30
2019-04-16T23:42:59.794Z,8.20
2019-04-16T23:45:50.537Z,8.20
2019-04-16T23:48:47.832Z,8.20
2019-04-16T23:51:23.218Z,8.30
2019-04-16T23:54:20.070Z,8.40
2019-04-16T23:57:04.756Z,8.30
2019-04-16T23:59:54.219Z,8.40
